sensor_id;sensor_type;location;lat;lon;timestamp;P1;durP1;ratioP1;P2;durP2;ratioP2
66585;SDS011;53444;45.822;16.092;2023-07-13T00:00:46;8.02;;;4.95;;
66585;SDS011;53444;45.822;16.092;2023-07-13T00:03:12;6.70;;;4.87;;
66585;SDS011;53444;45.822;16.092;2023-07-13T00:05:39;8.02;;;4.90;;
66585;SDS011;53444;45.822;16.092;2023-07-13T00:08:06;9.23;;;5.20;;
66585;SDS011;53444;45.822;16.092;2023-07-13T00:10:33;13.55;;;6.13;;
66585;SDS011;53444;45.822;16.092;2023-07-13T00:13:01;10.55;;;5.05;;
66585;SDS011;53444;45.822;16.092;2023-07-13T00:15:28;8.63;;;5.53;;
66585;SDS011;53444;45.822;16.092;2023-07-13T00:17:56;9.48;;;5.53;;
66585;SDS011;53444;45.822;16.092;2023-07-13T00:20:26;9.10;;;5.10;;
66585;SDS011;53444;45.822;16.092;2023-07-13T00:22:52;11.75;;;5.85;;
66585;SDS011;53444;45.822;16.092;2023-07-13T00:25:19;10.55;;;5.43;;
66585;SDS011;53444;45.822;16.092;2023-07-13T00:27:48;10.73;;;5.17;;
66585;SDS011;53444;45.822;16.092;2023-07-13T00:30:17;11.10;;;4.97;;
66585;SDS011;53444;45.822;16.092;2023-07-13T00:32:44;9.48;;;5.40;;
66585;SDS011;53444;45.822;16.092;2023-07-13T00:35:12;12.02;;;5.40;;
66585;SDS011;53444;45.822;16.092;2023-07-13T00:37:40;10.55;;;5.07;;
66585;SDS011;53444;45.822;16.092;2023-07-13T00:40:07;10.97;;;5.37;;
66585;SDS011;53444;45.822;16.092;2023-07-13T00:42:35;10.93;;;5.32;;
66585;SDS011;53444;45.822;16.092;2023-07-13T00:45:03;11.38;;;5.97;;
66585;SDS011;53444;45.822;16.092;2023-07-13T00:47:32;8.52;;;5.68;;
66585;SDS011;53444;45.822;16.092;2023-07-13T00:49:59;12.10;;;5.72;;
66585;SDS011;53444;45.822;16.092;2023-07-13T00:52:27;10.17;;;5.80;;
66585;SDS011;53444;45.822;16.092;2023-07-13T00:54:54;8.32;;;5.60;;
66585;SDS011;53444;45.822;16.092;2023-07-13T00:57:22;10.77;;;6.05;;
66585;SDS011;53444;45.822;16.092;2023-07-13T00:59:49;9.38;;;5.82;;
66585;SDS011;53444;45.822;16.092;2023-07-13T01:02:18;11.30;;;7.00;;
66585;SDS011;53444;45.822;16.092;2023-07-13T01:04:48;8.23;;;5.67;;
66585;SDS011;53444;45.822;16.092;2023-07-13T01:07:14;10.30;;;5.95;;
66585;SDS011;53444;45.822;16.092;2023-07-13T01:09:41;13.68;;;6.53;;
66585;SDS011;53444;45.822;16.092;2023-07-13T01:12:10;8.60;;;5.85;;
66585;SDS011;53444;45.822;16.092;2023-07-13T01:14:36;11.45;;;6.13;;
66585;SDS011;53444;45.822;16.092;2023-07-13T01:17:04;9.67;;;5.97;;
66585;SDS011;53444;45.822;16.092;2023-07-13T01:19:32;10.38;;;5.45;;
66585;SDS011;53444;45.822;16.092;2023-07-13T01:22:04;10.98;;;5.68;;
66585;SDS011;53444;45.822;16.092;2023-07-13T01:24:33;10.55;;;5.80;;
66585;SDS011;53444;45.822;16.092;2023-07-13T01:27:00;9.18;;;5.93;;
66585;SDS011;53444;45.822;16.092;2023-07-13T01:29:27;7.83;;;5.73;;
66585;SDS011;53444;45.822;16.092;2023-07-13T01:31:54;9.02;;;5.70;;
66585;SDS011;53444;45.822;16.092;2023-07-13T01:34:20;11.00;;;6.35;;
66585;SDS011;53444;45.822;16.092;2023-07-13T01:36:47;11.95;;;5.82;;
66585;SDS011;53444;45.822;16.092;2023-07-13T01:39:15;10.38;;;6.50;;
66585;SDS011;53444;45.822;16.092;2023-07-13T01:41:42;10.33;;;6.83;;
66585;SDS011;53444;45.822;16.092;2023-07-13T01:44:09;9.90;;;5.97;;
66585;SDS011;53444;45.822;16.092;2023-07-13T01:46:35;13.20;;;6.18;;
66585;SDS011;53444;45.822;16.092;2023-07-13T01:49:02;10.75;;;5.95;;
66585;SDS011;53444;45.822;16.092;2023-07-13T01:51:29;10.80;;;6.25;;
66585;SDS011;53444;45.822;16.092;2023-07-13T01:53:55;10.03;;;5.10;;
66585;SDS011;53444;45.822;16.092;2023-07-13T01:56:24;10.15;;;6.35;;
66585;SDS011;53444;45.822;16.092;2023-07-13T01:58:51;11.52;;;6.35;;
66585;SDS011;53444;45.822;16.092;2023-07-13T02:01:18;9.35;;;6.07;;
66585;SDS011;53444;45.822;16.092;2023-07-13T02:03:45;12.35;;;5.60;;
66585;SDS011;53444;45.822;16.092;2023-07-13T02:06:12;11.40;;;5.93;;
66585;SDS011;53444;45.822;16.092;2023-07-13T02:08:40;9.48;;;5.72;;
66585;SDS011;53444;45.822;16.092;2023-07-13T02:11:07;8.40;;;5.85;;
66585;SDS011;53444;45.822;16.092;2023-07-13T02:13:35;11.57;;;6.68;;
66585;SDS011;53444;45.822;16.092;2023-07-13T02:16:01;12.43;;;6.63;;
66585;SDS011;53444;45.822;16.092;2023-07-13T02:18:28;10.33;;;6.13;;
66585;SDS011;53444;45.822;16.092;2023-07-13T02:20:55;8.90;;;5.80;;
66585;SDS011;53444;45.822;16.092;2023-07-13T02:23:22;8.82;;;6.55;;
66585;SDS011;53444;45.822;16.092;2023-07-13T02:25:48;11.63;;;5.93;;
66585;SDS011;53444;45.822;16.092;2023-07-13T02:28:15;9.23;;;6.15;;
66585;SDS011;53444;45.822;16.092;2023-07-13T02:30:43;9.80;;;5.73;;
66585;SDS011;53444;45.822;16.092;2023-07-13T02:33:10;12.48;;;6.00;;
66585;SDS011;53444;45.822;16.092;2023-07-13T02:35:36;14.57;;;6.32;;
66585;SDS011;53444;45.822;16.092;2023-07-13T02:38:03;9.48;;;5.80;;
66585;SDS011;53444;45.822;16.092;2023-07-13T02:40:29;11.02;;;6.00;;
66585;SDS011;53444;45.822;16.092;2023-07-13T02:42:58;11.33;;;5.73;;
66585;SDS011;53444;45.822;16.092;2023-07-13T02:45:24;10.48;;;5.45;;
66585;SDS011;53444;45.822;16.092;2023-07-13T02:47:52;8.13;;;6.10;;
66585;SDS011;53444;45.822;16.092;2023-07-13T02:50:19;11.95;;;5.80;;
66585;SDS011;53444;45.822;16.092;2023-07-13T02:52:46;10.35;;;5.97;;
66585;SDS011;53444;45.822;16.092;2023-07-13T02:55:12;8.37;;;5.53;;
66585;SDS011;53444;45.822;16.092;2023-07-13T02:57:39;10.40;;;6.03;;
66585;SDS011;53444;45.822;16.092;2023-07-13T03:00:07;11.80;;;5.68;;
66585;SDS011;53444;45.822;16.092;2023-07-13T03:02:34;9.10;;;5.50;;
66585;SDS011;53444;45.822;16.092;2023-07-13T03:05:02;10.82;;;5.70;;
66585;SDS011;53444;45.822;16.092;2023-07-13T03:07:30;11.43;;;5.47;;
66585;SDS011;53444;45.822;16.092;2023-07-13T03:09:57;11.32;;;5.20;;
66585;SDS011;53444;45.822;16.092;2023-07-13T03:12:24;8.48;;;5.13;;
66585;SDS011;53444;45.822;16.092;2023-07-13T03:14:51;7.70;;;4.40;;
66585;SDS011;53444;45.822;16.092;2023-07-13T03:17:18;5.97;;;4.68;;
66585;SDS011;53444;45.822;16.092;2023-07-13T03:19:44;7.23;;;4.07;;
66585;SDS011;53444;45.822;16.092;2023-07-13T03:22:15;7.28;;;3.88;;
66585;SDS011;53444;45.822;16.092;2023-07-13T03:24:42;5.93;;;3.08;;
66585;SDS011;53444;45.822;16.092;2023-07-13T03:27:09;4.30;;;3.05;;
66585;SDS011;53444;45.822;16.092;2023-07-13T03:29:36;5.07;;;3.05;;
66585;SDS011;53444;45.822;16.092;2023-07-13T03:32:03;4.30;;;2.70;;
66585;SDS011;53444;45.822;16.092;2023-07-13T03:34:30;4.88;;;2.97;;
66585;SDS011;53444;45.822;16.092;2023-07-13T03:36:57;5.40;;;3.05;;
66585;SDS011;53444;45.822;16.092;2023-07-13T03:39:25;5.78;;;2.85;;
66585;SDS011;53444;45.822;16.092;2023-07-13T03:41:53;4.05;;;2.40;;
66585;SDS011;53444;45.822;16.092;2023-07-13T03:44:20;4.13;;;2.60;;
66585;SDS011;53444;45.822;16.092;2023-07-13T03:46:47;4.70;;;2.35;;
66585;SDS011;53444;45.822;16.092;2023-07-13T03:49:13;4.60;;;2.40;;
66585;SDS011;53444;45.822;16.092;2023-07-13T03:51:40;5.88;;;2.40;;
66585;SDS011;53444;45.822;16.092;2023-07-13T03:54:07;2.83;;;2.17;;
66585;SDS011;53444;45.822;16.092;2023-07-13T03:56:35;4.67;;;1.93;;
66585;SDS011;53444;45.822;16.092;2023-07-13T03:59:01;3.47;;;1.48;;
66585;SDS011;53444;45.822;16.092;2023-07-13T04:01:28;2.45;;;1.13;;
66585;SDS011;53444;45.822;16.092;2023-07-13T04:03:55;2.17;;;0.77;;
66585;SDS011;53444;45.822;16.092;2023-07-13T04:06:22;1.40;;;0.77;;
66585;SDS011;53444;45.822;16.092;2023-07-13T04:08:55;1.53;;;0.97;;
66585;SDS011;53444;45.822;16.092;2023-07-13T04:11:24;1.38;;;0.75;;
66585;SDS011;53444;45.822;16.092;2023-07-13T04:13:55;1.50;;;1.10;;
66585;SDS011;53444;45.822;16.092;2023-07-13T04:16:22;3.67;;;0.80;;
66585;SDS011;53444;45.822;16.092;2023-07-13T04:18:49;0.95;;;0.70;;
66585;SDS011;53444;45.822;16.092;2023-07-13T04:21:19;2.77;;;0.70;;
66585;SDS011;53444;45.822;16.092;2023-07-13T04:23:46;2.28;;;1.00;;
66585;SDS011;53444;45.822;16.092;2023-07-13T04:26:13;1.73;;;1.10;;
66585;SDS011;53444;45.822;16.092;2023-07-13T04:28:40;3.75;;;1.10;;
66585;SDS011;53444;45.822;16.092;2023-07-13T04:31:08;2.40;;;1.00;;
66585;SDS011;53444;45.822;16.092;2023-07-13T04:33:34;5.33;;;1.03;;
66585;SDS011;53444;45.822;16.092;2023-07-13T04:36:01;1.48;;;1.00;;
66585;SDS011;53444;45.822;16.092;2023-07-13T04:38:28;1.08;;;0.73;;
66585;SDS011;53444;45.822;16.092;2023-07-13T04:40:56;3.35;;;1.05;;
66585;SDS011;53444;45.822;16.092;2023-07-13T04:43:24;2.38;;;1.00;;
66585;SDS011;53444;45.822;16.092;2023-07-13T04:45:52;1.47;;;1.00;;
66585;SDS011;53444;45.822;16.092;2023-07-13T04:48:20;1.70;;;1.05;;
66585;SDS011;53444;45.822;16.092;2023-07-13T04:50:47;1.80;;;1.05;;
66585;SDS011;53444;45.822;16.092;2023-07-13T04:53:20;2.35;;;0.70;;
66585;SDS011;53444;45.822;16.092;2023-07-13T04:55:48;3.65;;;0.90;;
66585;SDS011;53444;45.822;16.092;2023-07-13T04:58:16;2.27;;;0.90;;
66585;SDS011;53444;45.822;16.092;2023-07-13T05:00:43;2.17;;;1.20;;
66585;SDS011;53444;45.822;16.092;2023-07-13T05:03:10;2.72;;;1.00;;
66585;SDS011;53444;45.822;16.092;2023-07-13T05:05:39;1.10;;;0.93;;
66585;SDS011;53444;45.822;16.092;2023-07-13T05:08:06;2.55;;;0.98;;
66585;SDS011;53444;45.822;16.092;2023-07-13T05:10:33;2.17;;;0.90;;
66585;SDS011;53444;45.822;16.092;2023-07-13T05:13:01;2.05;;;0.75;;
66585;SDS011;53444;45.822;16.092;2023-07-13T05:15:28;2.83;;;0.93;;
66585;SDS011;53444;45.822;16.092;2023-07-13T05:17:55;1.77;;;0.90;;
66585;SDS011;53444;45.822;16.092;2023-07-13T05:20:23;0.93;;;0.68;;
66585;SDS011;53444;45.822;16.092;2023-07-13T05:22:54;1.10;;;0.57;;
66585;SDS011;53444;45.822;16.092;2023-07-13T05:25:21;3.20;;;0.75;;
66585;SDS011;53444;45.822;16.092;2023-07-13T05:27:47;2.85;;;0.80;;
66585;SDS011;53444;45.822;16.092;2023-07-13T05:30:14;1.83;;;0.80;;
66585;SDS011;53444;45.822;16.092;2023-07-13T05:32:41;2.10;;;1.10;;
66585;SDS011;53444;45.822;16.092;2023-07-13T05:35:08;1.63;;;1.13;;
66585;SDS011;53444;45.822;16.092;2023-07-13T05:37:37;2.10;;;0.80;;
66585;SDS011;53444;45.822;16.092;2023-07-13T05:40:05;1.75;;;0.88;;
66585;SDS011;53444;45.822;16.092;2023-07-13T05:42:33;2.25;;;1.00;;
66585;SDS011;53444;45.822;16.092;2023-07-13T05:45:01;1.15;;;0.90;;
66585;SDS011;53444;45.822;16.092;2023-07-13T05:47:28;2.10;;;0.90;;
66585;SDS011;53444;45.822;16.092;2023-07-13T05:49:55;2.38;;;1.02;;
66585;SDS011;53444;45.822;16.092;2023-07-13T05:52:22;1.23;;;0.93;;
66585;SDS011;53444;45.822;16.092;2023-07-13T05:54:49;1.35;;;0.93;;
66585;SDS011;53444;45.822;16.092;2023-07-13T05:57:17;1.83;;;1.20;;
66585;SDS011;53444;45.822;16.092;2023-07-13T05:59:44;2.70;;;1.03;;
66585;SDS011;53444;45.822;16.092;2023-07-13T06:02:11;2.47;;;1.10;;
66585;SDS011;53444;45.822;16.092;2023-07-13T06:04:38;1.90;;;1.17;;
66585;SDS011;53444;45.822;16.092;2023-07-13T06:07:05;1.05;;;0.85;;
66585;SDS011;53444;45.822;16.092;2023-07-13T06:09:32;2.45;;;1.23;;
66585;SDS011;53444;45.822;16.092;2023-07-13T06:12:01;2.60;;;1.00;;
66585;SDS011;53444;45.822;16.092;2023-07-13T06:14:29;1.23;;;0.77;;
66585;SDS011;53444;45.822;16.092;2023-07-13T06:16:55;2.47;;;1.20;;
66585;SDS011;53444;45.822;16.092;2023-07-13T06:19:22;2.97;;;1.02;;
66585;SDS011;53444;45.822;16.092;2023-07-13T06:21:50;1.52;;;1.30;;
66585;SDS011;53444;45.822;16.092;2023-07-13T06:24:17;1.10;;;0.73;;
66585;SDS011;53444;45.822;16.092;2023-07-13T06:26:44;3.20;;;0.80;;
66585;SDS011;53444;45.822;16.092;2023-07-13T06:29:11;2.13;;;1.15;;
66585;SDS011;53444;45.822;16.092;2023-07-13T06:31:39;1.55;;;1.02;;
66585;SDS011;53444;45.822;16.092;2023-07-13T06:34:05;1.63;;;1.13;;
66585;SDS011;53444;45.822;16.092;2023-07-13T06:36:32;1.20;;;1.00;;
66585;SDS011;53444;45.822;16.092;2023-07-13T06:39:01;3.38;;;1.25;;
66585;SDS011;53444;45.822;16.092;2023-07-13T06:41:28;1.80;;;1.15;;
66585;SDS011;53444;45.822;16.092;2023-07-13T06:43:55;1.90;;;1.05;;
66585;SDS011;53444;45.822;16.092;2023-07-13T06:46:22;1.88;;;1.27;;
66585;SDS011;53444;45.822;16.092;2023-07-13T06:48:51;1.50;;;1.07;;
66585;SDS011;53444;45.822;16.092;2023-07-13T06:51:17;2.85;;;1.05;;
66585;SDS011;53444;45.822;16.092;2023-07-13T06:53:44;1.70;;;1.10;;
66585;SDS011;53444;45.822;16.092;2023-07-13T06:56:11;1.50;;;1.20;;
66585;SDS011;53444;45.822;16.092;2023-07-13T06:58:37;3.72;;;1.30;;
66585;SDS011;53444;45.822;16.092;2023-07-13T07:01:04;1.30;;;0.93;;
66585;SDS011;53444;45.822;16.092;2023-07-13T07:03:34;1.95;;;1.10;;
66585;SDS011;53444;45.822;16.092;2023-07-13T07:06:06;2.60;;;1.23;;
66585;SDS011;53444;45.822;16.092;2023-07-13T07:08:39;2.83;;;1.15;;
66585;SDS011;53444;45.822;16.092;2023-07-13T07:11:07;3.22;;;1.30;;
66585;SDS011;53444;45.822;16.092;2023-07-13T07:13:35;1.80;;;0.90;;
66585;SDS011;53444;45.822;16.092;2023-07-13T07:16:05;2.35;;;0.98;;
66585;SDS011;53444;45.822;16.092;2023-07-13T07:18:32;4.15;;;1.63;;
66585;SDS011;53444;45.822;16.092;2023-07-13T07:20:59;1.90;;;1.20;;
66585;SDS011;53444;45.822;16.092;2023-07-13T07:23:27;2.13;;;1.55;;
66585;SDS011;53444;45.822;16.092;2023-07-13T07:25:54;2.83;;;1.40;;
66585;SDS011;53444;45.822;16.092;2023-07-13T07:28:21;2.40;;;1.30;;
66585;SDS011;53444;45.822;16.092;2023-07-13T07:30:48;1.90;;;1.48;;
66585;SDS011;53444;45.822;16.092;2023-07-13T07:33:15;2.13;;;1.30;;
66585;SDS011;53444;45.822;16.092;2023-07-13T07:35:42;2.35;;;1.75;;
66585;SDS011;53444;45.822;16.092;2023-07-13T07:38:09;5.67;;;1.43;;
66585;SDS011;53444;45.822;16.092;2023-07-13T07:40:38;2.17;;;1.30;;
66585;SDS011;53444;45.822;16.092;2023-07-13T07:43:05;4.55;;;1.40;;
66585;SDS011;53444;45.822;16.092;2023-07-13T07:45:33;4.45;;;1.48;;
66585;SDS011;53444;45.822;16.092;2023-07-13T07:48:00;2.13;;;1.30;;
66585;SDS011;53444;45.822;16.092;2023-07-13T07:50:28;2.17;;;1.20;;
66585;SDS011;53444;45.822;16.092;2023-07-13T07:52:55;2.92;;;1.30;;
66585;SDS011;53444;45.822;16.092;2023-07-13T07:55:27;1.60;;;1.25;;
66585;SDS011;53444;45.822;16.092;2023-07-13T07:57:55;2.30;;;1.40;;
66585;SDS011;53444;45.822;16.092;2023-07-13T08:00:24;2.55;;;1.52;;
66585;SDS011;53444;45.822;16.092;2023-07-13T08:02:56;2.33;;;1.40;;
66585;SDS011;53444;45.822;16.092;2023-07-13T08:05:26;3.22;;;1.30;;
66585;SDS011;53444;45.822;16.092;2023-07-13T08:07:53;2.13;;;1.92;;
66585;SDS011;53444;45.822;16.092;2023-07-13T08:10:20;3.53;;;1.10;;
66585;SDS011;53444;45.822;16.092;2023-07-13T08:12:46;2.58;;;1.50;;
66585;SDS011;53444;45.822;16.092;2023-07-13T08:15:17;2.43;;;1.53;;
66585;SDS011;53444;45.822;16.092;2023-07-13T08:17:46;1.80;;;1.40;;
66585;SDS011;53444;45.822;16.092;2023-07-13T08:20:13;1.70;;;1.60;;
66585;SDS011;53444;45.822;16.092;2023-07-13T08:22:40;6.18;;;1.58;;
66585;SDS011;53444;45.822;16.092;2023-07-13T08:25:07;2.75;;;1.73;;
66585;SDS011;53444;45.822;16.092;2023-07-13T08:27:37;2.13;;;1.53;;
66585;SDS011;53444;45.822;16.092;2023-07-13T08:30:05;2.03;;;1.30;;
66585;SDS011;53444;45.822;16.092;2023-07-13T08:32:36;2.88;;;1.10;;
66585;SDS011;53444;45.822;16.092;2023-07-13T08:35:03;2.08;;;1.15;;
66585;SDS011;53444;45.822;16.092;2023-07-13T08:37:31;2.83;;;1.73;;
66585;SDS011;53444;45.822;16.092;2023-07-13T08:40:00;1.97;;;1.30;;
66585;SDS011;53444;45.822;16.092;2023-07-13T08:42:32;2.30;;;1.55;;
66585;SDS011;53444;45.822;16.092;2023-07-13T08:45:06;1.83;;;1.50;;
66585;SDS011;53444;45.822;16.092;2023-07-13T08:47:42;2.95;;;1.63;;
66585;SDS011;53444;45.822;16.092;2023-07-13T08:50:13;3.20;;;1.88;;
66585;SDS011;53444;45.822;16.092;2023-07-13T08:52:43;1.90;;;1.30;;
66585;SDS011;53444;45.822;16.092;2023-07-13T08:55:12;2.25;;;1.30;;
66585;SDS011;53444;45.822;16.092;2023-07-13T08:57:42;5.82;;;1.70;;
66585;SDS011;53444;45.822;16.092;2023-07-13T09:00:13;2.88;;;1.40;;
66585;SDS011;53444;45.822;16.092;2023-07-13T09:02:44;5.53;;;1.60;;
66585;SDS011;53444;45.822;16.092;2023-07-13T09:05:13;1.27;;;1.17;;
66585;SDS011;53444;45.822;16.092;2023-07-13T09:07:55;2.75;;;1.42;;
66585;SDS011;53444;45.822;16.092;2023-07-13T09:10:30;2.53;;;1.90;;
66585;SDS011;53444;45.822;16.092;2023-07-13T09:13:07;3.00;;;1.60;;
66585;SDS011;53444;45.822;16.092;2023-07-13T09:15:44;5.47;;;1.70;;
66585;SDS011;53444;45.822;16.092;2023-07-13T09:18:16;2.47;;;1.73;;
66585;SDS011;53444;45.822;16.092;2023-07-13T09:20:49;2.53;;;1.45;;
66585;SDS011;53444;45.822;16.092;2023-07-13T09:23:19;3.22;;;1.70;;
66585;SDS011;53444;45.822;16.092;2023-07-13T09:25:51;1.98;;;1.50;;
66585;SDS011;53444;45.822;16.092;2023-07-13T09:28:22;2.25;;;1.70;;
66585;SDS011;53444;45.822;16.092;2023-07-13T09:30:52;2.00;;;1.77;;
66585;SDS011;53444;45.822;16.092;2023-07-13T09:33:25;2.80;;;1.83;;
66585;SDS011;53444;45.822;16.092;2023-07-13T09:35:54;4.65;;;2.10;;
66585;SDS011;53444;45.822;16.092;2023-07-13T09:38:22;2.40;;;1.70;;
66585;SDS011;53444;45.822;16.092;2023-07-13T09:40:59;2.83;;;1.60;;
66585;SDS011;53444;45.822;16.092;2023-07-13T09:43:34;2.33;;;1.53;;
66585;SDS011;53444;45.822;16.092;2023-07-13T09:46:01;1.77;;;1.48;;
66585;SDS011;53444;45.822;16.092;2023-07-13T09:48:34;2.72;;;1.60;;
66585;SDS011;53444;45.822;16.092;2023-07-13T09:51:12;2.47;;;1.75;;
66585;SDS011;53444;45.822;16.092;2023-07-13T09:53:41;2.22;;;2.03;;
66585;SDS011;53444;45.822;16.092;2023-07-13T09:56:18;3.87;;;2.00;;
66585;SDS011;53444;45.822;16.092;2023-07-13T09:58:46;4.70;;;2.03;;
66585;SDS011;53444;45.822;16.092;2023-07-13T10:01:14;2.45;;;1.90;;
66585;SDS011;53444;45.822;16.092;2023-07-13T10:03:51;2.53;;;1.70;;
66585;SDS011;53444;45.822;16.092;2023-07-13T10:06:23;2.30;;;1.77;;
66585;SDS011;53444;45.822;16.092;2023-07-13T10:08:57;2.47;;;1.90;;
66585;SDS011;53444;45.822;16.092;2023-07-13T10:11:26;2.97;;;1.52;;
66585;SDS011;53444;45.822;16.092;2023-07-13T10:13:59;2.10;;;1.90;;
66585;SDS011;53444;45.822;16.092;2023-07-13T10:16:28;2.30;;;2.10;;
66585;SDS011;53444;45.822;16.092;2023-07-13T10:18:59;3.13;;;1.85;;
66585;SDS011;53444;45.822;16.092;2023-07-13T10:21:32;2.30;;;2.00;;
66585;SDS011;53444;45.822;16.092;2023-07-13T10:24:10;3.30;;;1.80;;
66585;SDS011;53444;45.822;16.092;2023-07-13T10:26:43;2.80;;;1.90;;
66585;SDS011;53444;45.822;16.092;2023-07-13T10:29:14;2.72;;;2.00;;
66585;SDS011;53444;45.822;16.092;2023-07-13T10:31:44;3.13;;;2.10;;
66585;SDS011;53444;45.822;16.092;2023-07-13T10:34:13;3.60;;;2.53;;
66585;SDS011;53444;45.822;16.092;2023-07-13T10:36:42;2.13;;;1.80;;
66585;SDS011;53444;45.822;16.092;2023-07-13T10:39:13;4.35;;;2.30;;
66585;SDS011;53444;45.822;16.092;2023-07-13T10:41:43;6.07;;;2.20;;
66585;SDS011;53444;45.822;16.092;2023-07-13T10:44:15;3.72;;;2.35;;
66585;SDS011;53444;45.822;16.092;2023-07-13T10:46:50;2.80;;;1.80;;
66585;SDS011;53444;45.822;16.092;2023-07-13T10:49:20;3.63;;;1.90;;
66585;SDS011;53444;45.822;16.092;2023-07-13T10:51:47;3.08;;;2.30;;
66585;SDS011;53444;45.822;16.092;2023-07-13T10:54:18;3.88;;;2.25;;
66585;SDS011;53444;45.822;16.092;2023-07-13T10:56:49;2.13;;;1.90;;
66585;SDS011;53444;45.822;16.092;2023-07-13T10:59:23;3.90;;;2.10;;
66585;SDS011;53444;45.822;16.092;2023-07-13T11:01:54;2.15;;;1.73;;
66585;SDS011;53444;45.822;16.092;2023-07-13T11:04:24;2.38;;;1.80;;
66585;SDS011;53444;45.822;16.092;2023-07-13T11:06:56;4.18;;;2.30;;
66585;SDS011;53444;45.822;16.092;2023-07-13T11:09:33;2.50;;;2.25;;
66585;SDS011;53444;45.822;16.092;2023-07-13T11:12:08;3.73;;;2.33;;
66585;SDS011;53444;45.822;16.092;2023-07-13T11:15:05;3.75;;;2.30;;
66585;SDS011;53444;45.822;16.092;2023-07-13T11:17:48;5.13;;;2.40;;
66585;SDS011;53444;45.822;16.092;2023-07-13T11:20:22;3.47;;;2.00;;
66585;SDS011;53444;45.822;16.092;2023-07-13T11:23:07;3.65;;;2.13;;
66585;SDS011;53444;45.822;16.092;2023-07-13T11:26:01;2.87;;;2.00;;
66585;SDS011;53444;45.822;16.092;2023-07-13T11:28:30;3.58;;;2.15;;
66585;SDS011;53444;45.822;16.092;2023-07-13T11:31:00;2.70;;;2.45;;
66585;SDS011;53444;45.822;16.092;2023-07-13T11:33:45;2.35;;;2.15;;
66585;SDS011;53444;45.822;16.092;2023-07-13T11:36:20;3.75;;;2.30;;
66585;SDS011;53444;45.822;16.092;2023-07-13T11:38:55;2.53;;;1.90;;
66585;SDS011;53444;45.822;16.092;2023-07-13T11:41:27;2.25;;;2.00;;
66585;SDS011;53444;45.822;16.092;2023-07-13T11:44:01;5.15;;;2.38;;
66585;SDS011;53444;45.822;16.092;2023-07-13T11:46:32;2.80;;;2.25;;
66585;SDS011;53444;45.822;16.092;2023-07-13T11:48:59;2.33;;;1.95;;
66585;SDS011;53444;45.822;16.092;2023-07-13T11:51:29;3.00;;;2.20;;
66585;SDS011;53444;45.822;16.092;2023-07-13T11:54:01;3.38;;;2.20;;
66585;SDS011;53444;45.822;16.092;2023-07-13T11:56:30;1.90;;;1.80;;
66585;SDS011;53444;45.822;16.092;2023-07-13T11:59:03;2.60;;;1.90;;
66585;SDS011;53444;45.822;16.092;2023-07-13T12:01:33;3.35;;;2.22;;
66585;SDS011;53444;45.822;16.092;2023-07-13T12:04:03;3.70;;;2.40;;
66585;SDS011;53444;45.822;16.092;2023-07-13T12:06:33;3.75;;;2.15;;
66585;SDS011;53444;45.822;16.092;2023-07-13T12:09:10;4.47;;;2.00;;
66585;SDS011;53444;45.822;16.092;2023-07-13T12:11:40;4.28;;;1.85;;
66585;SDS011;53444;45.822;16.092;2023-07-13T12:14:12;4.03;;;2.15;;
66585;SDS011;53444;45.822;16.092;2023-07-13T12:16:41;2.37;;;2.00;;
66585;SDS011;53444;45.822;16.092;2023-07-13T12:19:13;2.60;;;2.20;;
66585;SDS011;53444;45.822;16.092;2023-07-13T12:21:46;2.30;;;2.10;;
66585;SDS011;53444;45.822;16.092;2023-07-13T12:24:14;3.38;;;2.15;;
66585;SDS011;53444;45.822;16.092;2023-07-13T12:26:42;2.63;;;2.15;;
66585;SDS011;53444;45.822;16.092;2023-07-13T12:29:10;4.27;;;2.17;;
66585;SDS011;53444;45.822;16.092;2023-07-13T12:31:43;2.50;;;2.25;;
66585;SDS011;53444;45.822;16.092;2023-07-13T12:34:12;2.60;;;2.40;;
66585;SDS011;53444;45.822;16.092;2023-07-13T12:36:45;3.80;;;2.05;;
66585;SDS011;53444;45.822;16.092;2023-07-13T12:39:16;2.40;;;2.00;;
66585;SDS011;53444;45.822;16.092;2023-07-13T12:41:46;3.47;;;1.80;;
66585;SDS011;53444;45.822;16.092;2023-07-13T12:44:17;2.97;;;2.20;;
66585;SDS011;53444;45.822;16.092;2023-07-13T12:46:55;3.13;;;2.25;;
66585;SDS011;53444;45.822;16.092;2023-07-13T12:49:29;3.35;;;2.47;;
66585;SDS011;53444;45.822;16.092;2023-07-13T12:52:02;4.55;;;2.38;;
66585;SDS011;53444;45.822;16.092;2023-07-13T12:54:31;3.30;;;1.97;;
66585;SDS011;53444;45.822;16.092;2023-07-13T12:56:58;2.97;;;2.28;;
66585;SDS011;53444;45.822;16.092;2023-07-13T12:59:29;2.85;;;2.13;;
66585;SDS011;53444;45.822;16.092;2023-07-13T13:02:02;3.70;;;2.40;;
66585;SDS011;53444;45.822;16.092;2023-07-13T13:04:43;3.42;;;2.42;;
66585;SDS011;53444;45.822;16.092;2023-07-13T13:07:13;2.70;;;2.50;;
66585;SDS011;53444;45.822;16.092;2023-07-13T13:09:40;2.67;;;2.22;;
66585;SDS011;53444;45.822;16.092;2023-07-13T13:12:10;3.22;;;2.55;;
66585;SDS011;53444;45.822;16.092;2023-07-13T13:14:37;2.55;;;2.17;;
66585;SDS011;53444;45.822;16.092;2023-07-13T13:17:07;3.75;;;2.60;;
66585;SDS011;53444;45.822;16.092;2023-07-13T13:19:45;3.83;;;2.40;;
66585;SDS011;53444;45.822;16.092;2023-07-13T13:22:14;3.70;;;2.75;;
66585;SDS011;53444;45.822;16.092;2023-07-13T13:24:40;4.57;;;2.88;;
66585;SDS011;53444;45.822;16.092;2023-07-13T13:27:09;5.45;;;2.40;;
66585;SDS011;53444;45.822;16.092;2023-07-13T13:29:43;2.85;;;2.53;;
66585;SDS011;53444;45.822;16.092;2023-07-13T13:32:12;2.70;;;2.13;;
66585;SDS011;53444;45.822;16.092;2023-07-13T13:34:40;4.32;;;2.47;;
66585;SDS011;53444;45.822;16.092;2023-07-13T13:37:11;4.97;;;2.80;;
66585;SDS011;53444;45.822;16.092;2023-07-13T13:39:45;6.97;;;2.20;;
66585;SDS011;53444;45.822;16.092;2023-07-13T13:42:13;3.15;;;2.22;;
66585;SDS011;53444;45.822;16.092;2023-07-13T13:44:40;3.60;;;2.10;;
66585;SDS011;53444;45.822;16.092;2023-07-13T13:47:12;2.70;;;2.45;;
66585;SDS011;53444;45.822;16.092;2023-07-13T13:49:58;2.42;;;2.22;;
66585;SDS011;53444;45.822;16.092;2023-07-13T13:52:26;2.65;;;2.33;;
66585;SDS011;53444;45.822;16.092;2023-07-13T13:54:53;3.33;;;2.45;;
66585;SDS011;53444;45.822;16.092;2023-07-13T13:57:21;3.13;;;2.00;;
66585;SDS011;53444;45.822;16.092;2023-07-13T13:59:49;3.97;;;1.98;;
66585;SDS011;53444;45.822;16.092;2023-07-13T14:02:26;4.25;;;2.60;;
66585;SDS011;53444;45.822;16.092;2023-07-13T14:04:58;3.10;;;2.30;;
66585;SDS011;53444;45.822;16.092;2023-07-13T14:07:29;2.83;;;1.63;;
66585;SDS011;53444;45.822;16.092;2023-07-13T14:09:56;1.63;;;1.13;;
66585;SDS011;53444;45.822;16.092;2023-07-13T14:12:24;2.53;;;1.20;;
66585;SDS011;53444;45.822;16.092;2023-07-13T14:14:56;2.22;;;1.10;;
66585;SDS011;53444;45.822;16.092;2023-07-13T14:17:24;2.33;;;1.52;;
66585;SDS011;53444;45.822;16.092;2023-07-13T14:19:52;2.85;;;1.50;;
66585;SDS011;53444;45.822;16.092;2023-07-13T14:22:22;4.23;;;2.00;;
66585;SDS011;53444;45.822;16.092;2023-07-13T14:24:53;2.80;;;2.15;;
66585;SDS011;53444;45.822;16.092;2023-07-13T14:27:20;2.13;;;1.92;;
66585;SDS011;53444;45.822;16.092;2023-07-13T14:29:47;2.40;;;2.15;;
66585;SDS011;53444;45.822;16.092;2023-07-13T14:32:15;4.03;;;2.40;;
66585;SDS011;53444;45.822;16.092;2023-07-13T14:34:42;4.47;;;2.60;;
66585;SDS011;53444;45.822;16.092;2023-07-13T14:37:12;4.15;;;2.53;;
66585;SDS011;53444;45.822;16.092;2023-07-13T14:39:39;4.32;;;2.85;;
66585;SDS011;53444;45.822;16.092;2023-07-13T14:42:10;5.03;;;3.33;;
66585;SDS011;53444;45.822;16.092;2023-07-13T14:44:37;4.38;;;3.17;;